sensor_id;sensor_type;location;lat;lon;timestamp;P1;durP1;ratioP1;P2;durP2;ratioP2
11771;SDS011;12556;55.748;13.194;2023-05-14T00:00:55;6.53;;;3.83;;
11771;SDS011;12556;55.748;13.194;2023-05-14T00:03:21;7.23;;;3.87;;
11771;SDS011;12556;55.748;13.194;2023-05-14T00:05:50;7.50;;;4.40;;
11771;SDS011;12556;55.748;13.194;2023-05-14T00:08:17;5.00;;;3.80;;
11771;SDS011;12556;55.748;13.194;2023-05-14T00:10:56;7.17;;;4.53;;
11771;SDS011;12556;55.748;13.194;2023-05-14T00:13:24;5.43;;;3.93;;
11771;SDS011;12556;55.748;13.194;2023-05-14T00:15:51;6.70;;;4.30;;
11771;SDS011;12556;55.748;13.194;2023-05-14T00:18:22;4.57;;;4.13;;
11771;SDS011;12556;55.748;13.194;2023-05-14T00:20:50;6.50;;;3.97;;
11771;SDS011;12556;55.748;13.194;2023-05-14T00:23:19;5.30;;;3.60;;
11771;SDS011;12556;55.748;13.194;2023-05-14T00:25:47;5.63;;;4.30;;
11771;SDS011;12556;55.748;13.194;2023-05-14T00:28:14;5.73;;;4.07;;
11771;SDS011;12556;55.748;13.194;2023-05-14T00:30:41;4.70;;;3.70;;
11771;SDS011;12556;55.748;13.194;2023-05-14T00:33:08;8.50;;;4.30;;
11771;SDS011;12556;55.748;13.194;2023-05-14T00:35:35;5.60;;;3.83;;
11771;SDS011;12556;55.748;13.194;2023-05-14T00:38:03;7.57;;;4.40;;
11771;SDS011;12556;55.748;13.194;2023-05-14T00:40:30;5.90;;;3.93;;
11771;SDS011;12556;55.748;13.194;2023-05-14T00:42:58;6.10;;;4.30;;
11771;SDS011;12556;55.748;13.194;2023-05-14T00:45:25;5.47;;;3.80;;
11771;SDS011;12556;55.748;13.194;2023-05-14T00:47:52;6.10;;;4.13;;
11771;SDS011;12556;55.748;13.194;2023-05-14T00:50:19;4.97;;;4.30;;
11771;SDS011;12556;55.748;13.194;2023-05-14T00:52:47;5.23;;;4.40;;
11771;SDS011;12556;55.748;13.194;2023-05-14T00:55:16;5.83;;;4.07;;
11771;SDS011;12556;55.748;13.194;2023-05-14T00:57:43;6.87;;;4.00;;
11771;SDS011;12556;55.748;13.194;2023-05-14T01:00:17;9.40;;;4.53;;
11771;SDS011;12556;55.748;13.194;2023-05-14T01:02:44;10.87;;;4.87;;
11771;SDS011;12556;55.748;13.194;2023-05-14T01:05:11;6.40;;;4.20;;
11771;SDS011;12556;55.748;13.194;2023-05-14T01:07:43;7.17;;;4.93;;
11771;SDS011;12556;55.748;13.194;2023-05-14T01:10:23;6.97;;;4.17;;
11771;SDS011;12556;55.748;13.194;2023-05-14T01:12:55;6.53;;;4.53;;
11771;SDS011;12556;55.748;13.194;2023-05-14T01:15:27;5.53;;;4.23;;
11771;SDS011;12556;55.748;13.194;2023-05-14T01:17:58;7.67;;;4.83;;
11771;SDS011;12556;55.748;13.194;2023-05-14T01:20:27;5.20;;;4.00;;
11771;SDS011;12556;55.748;13.194;2023-05-14T01:22:55;8.67;;;4.63;;
11771;SDS011;12556;55.748;13.194;2023-05-14T01:25:22;5.50;;;4.30;;
11771;SDS011;12556;55.748;13.194;2023-05-14T01:27:51;8.43;;;5.00;;
11771;SDS011;12556;55.748;13.194;2023-05-14T01:30:27;5.53;;;4.17;;
11771;SDS011;12556;55.748;13.194;2023-05-14T01:32:57;7.83;;;4.47;;
11771;SDS011;12556;55.748;13.194;2023-05-14T01:35:28;7.80;;;4.60;;
11771;SDS011;12556;55.748;13.194;2023-05-14T01:37:58;11.57;;;4.37;;
11771;SDS011;12556;55.748;13.194;2023-05-14T01:43:19;5.03;;;4.50;;
11771;SDS011;12556;55.748;13.194;2023-05-14T01:45:47;7.07;;;5.10;;
11771;SDS011;12556;55.748;13.194;2023-05-14T01:48:14;8.37;;;4.13;;
11771;SDS011;12556;55.748;13.194;2023-05-14T01:50:41;6.13;;;4.27;;
11771;SDS011;12556;55.748;13.194;2023-05-14T01:53:09;8.40;;;4.30;;
11771;SDS011;12556;55.748;13.194;2023-05-14T01:55:36;9.20;;;4.57;;
11771;SDS011;12556;55.748;13.194;2023-05-14T01:58:03;8.33;;;4.53;;
11771;SDS011;12556;55.748;13.194;2023-05-14T02:00:30;5.43;;;4.33;;
11771;SDS011;12556;55.748;13.194;2023-05-14T02:02:57;9.17;;;4.50;;
11771;SDS011;12556;55.748;13.194;2023-05-14T02:05:24;7.97;;;4.40;;
11771;SDS011;12556;55.748;13.194;2023-05-14T02:07:51;7.27;;;4.70;;
11771;SDS011;12556;55.748;13.194;2023-05-14T02:10:19;6.77;;;4.33;;
11771;SDS011;12556;55.748;13.194;2023-05-14T02:12:52;10.30;;;4.93;;
11771;SDS011;12556;55.748;13.194;2023-05-14T02:15:19;7.23;;;4.97;;
11771;SDS011;12556;55.748;13.194;2023-05-14T02:17:47;4.83;;;4.43;;
11771;SDS011;12556;55.748;13.194;2023-05-14T02:20:14;5.83;;;4.33;;
11771;SDS011;12556;55.748;13.194;2023-05-14T02:22:41;5.57;;;4.00;;
11771;SDS011;12556;55.748;13.194;2023-05-14T02:25:09;8.10;;;4.47;;
11771;SDS011;12556;55.748;13.194;2023-05-14T02:27:38;8.03;;;4.20;;
11771;SDS011;12556;55.748;13.194;2023-05-14T02:30:05;4.87;;;4.30;;
11771;SDS011;12556;55.748;13.194;2023-05-14T02:32:33;5.83;;;4.30;;
11771;SDS011;12556;55.748;13.194;2023-05-14T02:35:00;6.00;;;4.00;;
11771;SDS011;12556;55.748;13.194;2023-05-14T02:37:27;5.53;;;4.07;;
11771;SDS011;12556;55.748;13.194;2023-05-14T02:39:54;6.50;;;4.10;;
11771;SDS011;12556;55.748;13.194;2023-05-14T02:42:21;7.83;;;4.47;;
11771;SDS011;12556;55.748;13.194;2023-05-14T02:44:49;4.67;;;4.10;;
11771;SDS011;12556;55.748;13.194;2023-05-14T02:47:17;8.97;;;4.73;;
11771;SDS011;12556;55.748;13.194;2023-05-14T02:49:44;5.73;;;4.50;;
11771;SDS011;12556;55.748;13.194;2023-05-14T02:52:11;6.27;;;4.53;;
11771;SDS011;12556;55.748;13.194;2023-05-14T02:54:38;7.43;;;4.13;;
11771;SDS011;12556;55.748;13.194;2023-05-14T02:57:04;10.43;;;4.13;;
11771;SDS011;12556;55.748;13.194;2023-05-14T02:59:42;7.23;;;4.30;;
11771;SDS011;12556;55.748;13.194;2023-05-14T03:02:10;7.40;;;4.30;;
11771;SDS011;12556;55.748;13.194;2023-05-14T03:04:37;5.43;;;4.87;;
11771;SDS011;12556;55.748;13.194;2023-05-14T03:07:04;8.50;;;4.23;;
11771;SDS011;12556;55.748;13.194;2023-05-14T03:09:31;8.13;;;4.30;;
11771;SDS011;12556;55.748;13.194;2023-05-14T03:11:58;7.50;;;3.90;;
11771;SDS011;12556;55.748;13.194;2023-05-14T03:14:25;5.60;;;4.27;;
11771;SDS011;12556;55.748;13.194;2023-05-14T03:16:52;8.83;;;4.03;;
11771;SDS011;12556;55.748;13.194;2023-05-14T03:19:34;6.97;;;4.57;;
11771;SDS011;12556;55.748;13.194;2023-05-14T03:22:01;7.53;;;4.07;;
11771;SDS011;12556;55.748;13.194;2023-05-14T03:24:28;7.60;;;3.83;;
11771;SDS011;12556;55.748;13.194;2023-05-14T03:26:56;7.87;;;4.53;;
11771;SDS011;12556;55.748;13.194;2023-05-14T03:29:22;5.57;;;4.13;;
11771;SDS011;12556;55.748;13.194;2023-05-14T03:31:49;6.97;;;4.10;;
11771;SDS011;12556;55.748;13.194;2023-05-14T03:34:17;7.20;;;4.50;;
11771;SDS011;12556;55.748;13.194;2023-05-14T03:36:45;8.17;;;4.63;;
11771;SDS011;12556;55.748;13.194;2023-05-14T03:39:14;10.17;;;4.77;;
11771;SDS011;12556;55.748;13.194;2023-05-14T03:41:43;6.10;;;4.53;;
11771;SDS011;12556;55.748;13.194;2023-05-14T03:44:15;5.80;;;4.07;;
11771;SDS011;12556;55.748;13.194;2023-05-14T03:46:42;7.57;;;4.73;;
11771;SDS011;12556;55.748;13.194;2023-05-14T03:49:09;6.63;;;5.20;;
11771;SDS011;12556;55.748;13.194;2023-05-14T03:51:36;5.43;;;4.93;;
11771;SDS011;12556;55.748;13.194;2023-05-14T03:54:05;6.07;;;4.47;;
11771;SDS011;12556;55.748;13.194;2023-05-14T03:56:35;6.90;;;4.83;;
11771;SDS011;12556;55.748;13.194;2023-05-14T03:59:02;7.53;;;4.57;;
11771;SDS011;12556;55.748;13.194;2023-05-14T04:01:29;6.30;;;4.60;;
11771;SDS011;12556;55.748;13.194;2023-05-14T04:03:56;6.17;;;4.50;;
11771;SDS011;12556;55.748;13.194;2023-05-14T04:06:23;5.10;;;4.43;;
11771;SDS011;12556;55.748;13.194;2023-05-14T04:08:50;7.83;;;4.40;;
11771;SDS011;12556;55.748;13.194;2023-05-14T04:11:19;8.73;;;4.83;;
11771;SDS011;12556;55.748;13.194;2023-05-14T04:13:46;8.67;;;4.87;;
11771;SDS011;12556;55.748;13.194;2023-05-14T04:16:13;5.97;;;4.20;;
11771;SDS011;12556;55.748;13.194;2023-05-14T04:18:45;10.60;;;4.87;;
11771;SDS011;12556;55.748;13.194;2023-05-14T04:21:12;9.13;;;4.60;;
11771;SDS011;12556;55.748;13.194;2023-05-14T04:23:39;9.10;;;4.90;;
11771;SDS011;12556;55.748;13.194;2023-05-14T04:26:06;9.27;;;4.23;;
11771;SDS011;12556;55.748;13.194;2023-05-14T04:28:39;6.47;;;4.60;;
11771;SDS011;12556;55.748;13.194;2023-05-14T04:31:06;4.57;;;4.13;;
11771;SDS011;12556;55.748;13.194;2023-05-14T04:33:40;7.50;;;4.33;;
11771;SDS011;12556;55.748;13.194;2023-05-14T04:36:07;5.17;;;4.30;;
11771;SDS011;12556;55.748;13.194;2023-05-14T04:38:34;5.07;;;4.57;;
11771;SDS011;12556;55.748;13.194;2023-05-14T04:41:01;5.90;;;3.60;;
11771;SDS011;12556;55.748;13.194;2023-05-14T04:43:28;4.83;;;4.23;;
11771;SDS011;12556;55.748;13.194;2023-05-14T04:45:57;5.97;;;4.30;;
11771;SDS011;12556;55.748;13.194;2023-05-14T04:48:23;11.90;;;4.70;;
11771;SDS011;12556;55.748;13.194;2023-05-14T04:50:50;5.90;;;4.93;;
11771;SDS011;12556;55.748;13.194;2023-05-14T04:53:17;4.90;;;4.10;;
11771;SDS011;12556;55.748;13.194;2023-05-14T04:55:44;10.03;;;4.10;;
11771;SDS011;12556;55.748;13.194;2023-05-14T04:58:11;7.37;;;4.50;;
11771;SDS011;12556;55.748;13.194;2023-05-14T05:00:38;7.67;;;4.70;;
11771;SDS011;12556;55.748;13.194;2023-05-14T05:03:10;10.73;;;5.13;;
11771;SDS011;12556;55.748;13.194;2023-05-14T05:05:37;7.87;;;4.57;;
11771;SDS011;12556;55.748;13.194;2023-05-14T05:08:09;8.27;;;4.77;;
11771;SDS011;12556;55.748;13.194;2023-05-14T05:10:36;6.20;;;4.60;;
11771;SDS011;12556;55.748;13.194;2023-05-14T05:13:03;5.97;;;4.10;;
11771;SDS011;12556;55.748;13.194;2023-05-14T05:15:30;6.10;;;4.37;;
11771;SDS011;12556;55.748;13.194;2023-05-14T05:17:57;5.33;;;4.40;;
11771;SDS011;12556;55.748;13.194;2023-05-14T05:20:25;6.47;;;4.23;;
11771;SDS011;12556;55.748;13.194;2023-05-14T05:23:02;9.17;;;4.73;;
11771;SDS011;12556;55.748;13.194;2023-05-14T05:25:29;9.83;;;4.77;;
11771;SDS011;12556;55.748;13.194;2023-05-14T05:27:57;4.53;;;4.13;;
11771;SDS011;12556;55.748;13.194;2023-05-14T05:30:24;6.23;;;4.57;;
11771;SDS011;12556;55.748;13.194;2023-05-14T05:32:51;6.83;;;4.53;;
11771;SDS011;12556;55.748;13.194;2023-05-14T05:35:18;8.43;;;4.63;;
11771;SDS011;12556;55.748;13.194;2023-05-14T05:37:46;8.03;;;4.17;;
11771;SDS011;12556;55.748;13.194;2023-05-14T05:40:13;5.57;;;4.37;;
11771;SDS011;12556;55.748;13.194;2023-05-14T05:42:41;9.63;;;4.10;;
11771;SDS011;12556;55.748;13.194;2023-05-14T05:45:08;9.90;;;4.43;;
11771;SDS011;12556;55.748;13.194;2023-05-14T05:47:35;7.30;;;4.40;;
11771;SDS011;12556;55.748;13.194;2023-05-14T05:50:02;4.30;;;3.90;;
11771;SDS011;12556;55.748;13.194;2023-05-14T05:52:30;5.17;;;4.10;;
11771;SDS011;12556;55.748;13.194;2023-05-14T05:54:58;6.47;;;4.40;;
11771;SDS011;12556;55.748;13.194;2023-05-14T05:57:25;5.90;;;4.07;;
11771;SDS011;12556;55.748;13.194;2023-05-14T05:59:52;8.40;;;4.70;;
11771;SDS011;12556;55.748;13.194;2023-05-14T06:02:19;8.93;;;4.60;;
11771;SDS011;12556;55.748;13.194;2023-05-14T06:04:46;5.70;;;4.17;;
11771;SDS011;12556;55.748;13.194;2023-05-14T06:07:13;5.10;;;4.10;;
11771;SDS011;12556;55.748;13.194;2023-05-14T06:09:42;5.17;;;4.27;;
11771;SDS011;12556;55.748;13.194;2023-05-14T06:12:18;8.43;;;4.27;;
11771;SDS011;12556;55.748;13.194;2023-05-14T06:14:45;5.07;;;3.73;;
11771;SDS011;12556;55.748;13.194;2023-05-14T06:17:12;7.47;;;4.70;;
11771;SDS011;12556;55.748;13.194;2023-05-14T06:19:39;7.60;;;4.33;;
11771;SDS011;12556;55.748;13.194;2023-05-14T06:22:06;5.00;;;4.07;;
11771;SDS011;12556;55.748;13.194;2023-05-14T06:24:34;5.93;;;4.13;;
11771;SDS011;12556;55.748;13.194;2023-05-14T06:27:01;5.13;;;4.17;;
11771;SDS011;12556;55.748;13.194;2023-05-14T06:29:30;4.57;;;3.97;;
11771;SDS011;12556;55.748;13.194;2023-05-14T06:32:05;8.10;;;4.37;;
11771;SDS011;12556;55.748;13.194;2023-05-14T06:34:34;6.47;;;3.90;;
11771;SDS011;12556;55.748;13.194;2023-05-14T06:37:01;6.67;;;3.87;;
11771;SDS011;12556;55.748;13.194;2023-05-14T06:39:28;4.60;;;3.90;;
11771;SDS011;12556;55.748;13.194;2023-05-14T06:41:55;4.43;;;3.70;;
11771;SDS011;12556;55.748;13.194;2023-05-14T06:44:22;6.43;;;4.00;;
11771;SDS011;12556;55.748;13.194;2023-05-14T06:46:51;7.40;;;3.90;;
11771;SDS011;12556;55.748;13.194;2023-05-14T06:49:18;4.63;;;3.47;;
11771;SDS011;12556;55.748;13.194;2023-05-14T06:51:45;8.30;;;3.70;;
11771;SDS011;12556;55.748;13.194;2023-05-14T06:54:12;5.67;;;4.00;;
11771;SDS011;12556;55.748;13.194;2023-05-14T06:56:45;4.50;;;3.60;;
11771;SDS011;12556;55.748;13.194;2023-05-14T06:59:12;4.75;;;3.15;;
11771;SDS011;12556;55.748;13.194;2023-05-14T07:01:39;7.20;;;3.65;;
11771;SDS011;12556;55.748;13.194;2023-05-14T07:04:07;6.30;;;3.72;;
11771;SDS011;12556;55.748;13.194;2023-05-14T07:06:34;6.63;;;3.88;;
11771;SDS011;12556;55.748;13.194;2023-05-14T07:09:01;4.55;;;3.80;;
11771;SDS011;12556;55.748;13.194;2023-05-14T07:11:30;10.52;;;3.75;;
11771;SDS011;12556;55.748;13.194;2023-05-14T07:16:28;4.05;;;3.40;;
11771;SDS011;12556;55.748;13.194;2023-05-14T07:18:55;7.00;;;3.65;;
11771;SDS011;12556;55.748;13.194;2023-05-14T07:21:23;7.90;;;3.85;;
11771;SDS011;12556;55.748;13.194;2023-05-14T07:23:51;7.68;;;4.15;;
11771;SDS011;12556;55.748;13.194;2023-05-14T07:26:18;6.90;;;3.40;;
11771;SDS011;12556;55.748;13.194;2023-05-14T07:28:48;6.32;;;4.32;;
11771;SDS011;12556;55.748;13.194;2023-05-14T07:31:15;7.88;;;3.60;;
11771;SDS011;12556;55.748;13.194;2023-05-14T07:33:42;5.10;;;3.58;;
11771;SDS011;12556;55.748;13.194;2023-05-14T07:36:09;7.30;;;3.20;;
11771;SDS011;12556;55.748;13.194;2023-05-14T07:38:37;4.68;;;3.38;;
11771;SDS011;12556;55.748;13.194;2023-05-14T07:41:04;5.75;;;4.10;;
11771;SDS011;12556;55.748;13.194;2023-05-14T07:46:12;6.10;;;3.95;;
11771;SDS011;12556;55.748;13.194;2023-05-14T07:48:40;5.75;;;3.53;;
11771;SDS011;12556;55.748;13.194;2023-05-14T07:51:07;5.63;;;3.70;;
11771;SDS011;12556;55.748;13.194;2023-05-14T07:53:34;5.78;;;3.50;;
11771;SDS011;12556;55.748;13.194;2023-05-14T07:56:03;5.88;;;3.80;;
11771;SDS011;12556;55.748;13.194;2023-05-14T07:58:30;4.75;;;3.78;;
11771;SDS011;12556;55.748;13.194;2023-05-14T08:00:57;3.75;;;3.35;;
11771;SDS011;12556;55.748;13.194;2023-05-14T08:03:25;4.28;;;3.50;;
11771;SDS011;12556;55.748;13.194;2023-05-14T08:05:52;3.97;;;3.47;;
11771;SDS011;12556;55.748;13.194;2023-05-14T08:08:19;4.78;;;3.40;;
11771;SDS011;12556;55.748;13.194;2023-05-14T08:10:48;3.90;;;3.00;;
11771;SDS011;12556;55.748;13.194;2023-05-14T08:13:16;4.32;;;3.40;;
11771;SDS011;12556;55.748;13.194;2023-05-14T08:15:51;5.05;;;3.25;;
11771;SDS011;12556;55.748;13.194;2023-05-14T08:18:18;4.18;;;2.88;;
11771;SDS011;12556;55.748;13.194;2023-05-14T08:20:44;7.28;;;3.03;;
11771;SDS011;12556;55.748;13.194;2023-05-14T08:23:12;5.07;;;3.28;;
11771;SDS011;12556;55.748;13.194;2023-05-14T08:25:39;6.43;;;3.22;;
11771;SDS011;12556;55.748;13.194;2023-05-14T08:28:07;5.32;;;3.33;;
11771;SDS011;12556;55.748;13.194;2023-05-14T08:30:34;3.85;;;3.47;;
11771;SDS011;12556;55.748;13.194;2023-05-14T08:33:01;4.47;;;2.92;;
11771;SDS011;12556;55.748;13.194;2023-05-14T08:38:08;3.38;;;2.83;;
11771;SDS011;12556;55.748;13.194;2023-05-14T08:40:38;4.03;;;3.00;;
11771;SDS011;12556;55.748;13.194;2023-05-14T08:43:05;4.05;;;3.08;;
11771;SDS011;12556;55.748;13.194;2023-05-14T08:45:41;3.83;;;3.00;;
11771;SDS011;12556;55.748;13.194;2023-05-14T08:48:09;3.03;;;2.70;;
11771;SDS011;12556;55.748;13.194;2023-05-14T08:50:41;4.20;;;3.35;;
11771;SDS011;12556;55.748;13.194;2023-05-14T08:53:09;3.88;;;2.78;;
11771;SDS011;12556;55.748;13.194;2023-05-14T08:58:23;4.35;;;2.90;;
11771;SDS011;12556;55.748;13.194;2023-05-14T09:00:52;3.45;;;2.88;;
11771;SDS011;12556;55.748;13.194;2023-05-14T09:03:19;5.63;;;3.13;;
11771;SDS011;12556;55.748;13.194;2023-05-14T09:05:47;3.15;;;2.80;;
11771;SDS011;12556;55.748;13.194;2023-05-14T09:08:18;3.42;;;2.90;;
11771;SDS011;12556;55.748;13.194;2023-05-14T09:10:56;8.20;;;3.17;;
11771;SDS011;12556;55.748;13.194;2023-05-14T09:13:26;6.43;;;2.70;;
11771;SDS011;12556;55.748;13.194;2023-05-14T09:15:53;4.40;;;3.15;;
11771;SDS011;12556;55.748;13.194;2023-05-14T09:18:41;5.53;;;3.08;;
11771;SDS011;12556;55.748;13.194;2023-05-14T09:21:09;5.05;;;3.05;;
11771;SDS011;12556;55.748;13.194;2023-05-14T09:23:38;2.88;;;2.60;;
11771;SDS011;12556;55.748;13.194;2023-05-14T09:26:07;3.40;;;3.10;;
11771;SDS011;12556;55.748;13.194;2023-05-14T09:28:35;4.68;;;2.72;;
11771;SDS011;12556;55.748;13.194;2023-05-14T09:31:05;3.38;;;2.75;;
11771;SDS011;12556;55.748;13.194;2023-05-14T09:33:32;7.45;;;2.92;;
11771;SDS011;12556;55.748;13.194;2023-05-14T09:35:59;2.95;;;2.65;;
11771;SDS011;12556;55.748;13.194;2023-05-14T09:38:27;4.38;;;3.08;;
11771;SDS011;12556;55.748;13.194;2023-05-14T09:40:55;4.70;;;3.22;;
11771;SDS011;12556;55.748;13.194;2023-05-14T09:43:22;4.25;;;2.90;;
11771;SDS011;12556;55.748;13.194;2023-05-14T09:48:20;4.50;;;3.22;;
11771;SDS011;12556;55.748;13.194;2023-05-14T09:50:48;2.85;;;2.65;;
11771;SDS011;12556;55.748;13.194;2023-05-14T09:53:16;4.38;;;2.70;;
11771;SDS011;12556;55.748;13.194;2023-05-14T09:55:43;5.05;;;2.70;;
11771;SDS011;12556;55.748;13.194;2023-05-14T09:58:11;4.35;;;2.90;;
11771;SDS011;12556;55.748;13.194;2023-05-14T10:00:51;4.10;;;3.22;;
11771;SDS011;12556;55.748;13.194;2023-05-14T10:03:23;6.65;;;3.10;;
11771;SDS011;12556;55.748;13.194;2023-05-14T10:05:52;3.97;;;2.78;;
11771;SDS011;12556;55.748;13.194;2023-05-14T10:08:21;3.20;;;2.90;;
11771;SDS011;12556;55.748;13.194;2023-05-14T10:10:52;3.17;;;2.67;;
11771;SDS011;12556;55.748;13.194;2023-05-14T10:13:21;5.90;;;2.70;;
11771;SDS011;12556;55.748;13.194;2023-05-14T10:15:55;3.38;;;2.72;;
11771;SDS011;12556;55.748;13.194;2023-05-14T10:18:27;4.72;;;2.47;;
11771;SDS011;12556;55.748;13.194;2023-05-14T10:21:00;4.78;;;2.67;;
11771;SDS011;12556;55.748;13.194;2023-05-14T10:23:29;5.90;;;3.00;;
11771;SDS011;12556;55.748;13.194;2023-05-14T10:25:56;3.28;;;2.97;;
11771;SDS011;12556;55.748;13.194;2023-05-14T10:28:23;7.28;;;2.60;;
11771;SDS011;12556;55.748;13.194;2023-05-14T10:30:51;3.33;;;2.10;;
11771;SDS011;12556;55.748;13.194;2023-05-14T10:33:21;4.32;;;2.30;;
11771;SDS011;12556;55.748;13.194;2023-05-14T10:35:54;2.72;;;2.35;;
11771;SDS011;12556;55.748;13.194;2023-05-14T10:38:23;6.80;;;2.38;;
11771;SDS011;12556;55.748;13.194;2023-05-14T10:40:53;4.25;;;2.50;;
11771;SDS011;12556;55.748;13.194;2023-05-14T10:43:28;2.45;;;2.20;;
11771;SDS011;12556;55.748;13.194;2023-05-14T10:45:57;2.72;;;2.53;;
11771;SDS011;12556;55.748;13.194;2023-05-14T10:48:25;7.90;;;2.50;;
11771;SDS011;12556;55.748;13.194;2023-05-14T10:50:52;5.90;;;2.53;;
11771;SDS011;12556;55.748;13.194;2023-05-14T10:53:25;2.45;;;2.20;;
11771;SDS011;12556;55.748;13.194;2023-05-14T10:56:01;4.18;;;2.53;;
11771;SDS011;12556;55.748;13.194;2023-05-14T10:58:30;4.47;;;2.42;;
11771;SDS011;12556;55.748;13.194;2023-05-14T11:01:01;5.03;;;2.60;;
11771;SDS011;12556;55.748;13.194;2023-05-14T11:03:30;4.25;;;2.50;;
11771;SDS011;12556;55.748;13.194;2023-05-14T11:05:58;3.35;;;2.13;;
11771;SDS011;12556;55.748;13.194;2023-05-14T11:08:28;4.03;;;2.70;;
11771;SDS011;12556;55.748;13.194;2023-05-14T11:10:59;6.50;;;2.72;;
11771;SDS011;12556;55.748;13.194;2023-05-14T11:13:26;3.40;;;2.40;;
11771;SDS011;12556;55.748;13.194;2023-05-14T11:15:53;5.85;;;2.65;;
11771;SDS011;12556;55.748;13.194;2023-05-14T11:18:28;3.42;;;2.50;;
11771;SDS011;12556;55.748;13.194;2023-05-14T11:20:58;3.58;;;2.35;;
11771;SDS011;12556;55.748;13.194;2023-05-14T11:23:26;2.55;;;2.35;;
11771;SDS011;12556;55.748;13.194;2023-05-14T11:26:02;3.88;;;2.53;;
11771;SDS011;12556;55.748;13.194;2023-05-14T11:28:32;3.72;;;2.50;;
11771;SDS011;12556;55.748;13.194;2023-05-14T11:31:00;4.03;;;2.60;;
11771;SDS011;12556;55.748;13.194;2023-05-14T11:33:28;2.30;;;2.10;;
11771;SDS011;12556;55.748;13.194;2023-05-14T11:35:56;3.90;;;2.53;;
11771;SDS011;12556;55.748;13.194;2023-05-14T11:38:23;3.13;;;2.58;;
11771;SDS011;12556;55.748;13.194;2023-05-14T11:40:50;2.80;;;2.45;;
11771;SDS011;12556;55.748;13.194;2023-05-14T11:43:18;3.80;;;2.00;;
11771;SDS011;12556;55.748;13.194;2023-05-14T11:45:48;4.18;;;2.63;;
11771;SDS011;12556;55.748;13.194;2023-05-14T11:48:23;4.72;;;3.17;;
11771;SDS011;12556;55.748;13.194;2023-05-14T11:50:58;4.18;;;2.60;;
11771;SDS011;12556;55.748;13.194;2023-05-14T11:53:25;4.30;;;2.42;;
11771;SDS011;12556;55.748;13.194;2023-05-14T11:55:53;3.42;;;2.40;;
11771;SDS011;12556;55.748;13.194;2023-05-14T11:58:21;2.58;;;2.38;;
11771;SDS011;12556;55.748;13.194;2023-05-14T12:00:49;2.92;;;2.30;;
11771;SDS011;12556;55.748;13.194;2023-05-14T12:03:17;6.40;;;3.28;;
11771;SDS011;12556;55.748;13.194;2023-05-14T12:06:05;3.55;;;2.60;;
11771;SDS011;12556;55.748;13.194;2023-05-14T12:08:32;6.43;;;2.63;;
11771;SDS011;12556;55.748;13.194;2023-05-14T12:11:07;3.92;;;2.50;;
11771;SDS011;12556;55.748;13.194;2023-05-14T12:13:35;4.30;;;2.60;;
11771;SDS011;12556;55.748;13.194;2023-05-14T12:16:02;4.57;;;2.97;;
11771;SDS011;12556;55.748;13.194;2023-05-14T12:18:30;2.63;;;2.30;;
11771;SDS011;12556;55.748;13.194;2023-05-14T12:21:05;5.78;;;3.58;;
11771;SDS011;12556;55.748;13.194;2023-05-14T12:23:35;6.82;;;4.28;;
11771;SDS011;12556;55.748;13.194;2023-05-14T12:26:04;4.25;;;3.85;;
11771;SDS011;12556;55.748;13.194;2023-05-14T12:28:32;5.72;;;3.75;;
11771;SDS011;12556;55.748;13.194;2023-05-14T12:31:01;4.70;;;3.17;;
11771;SDS011;12556;55.748;13.194;2023-05-14T12:33:28;2.67;;;2.47;;
11771;SDS011;12556;55.748;13.194;2023-05-14T12:35:55;4.70;;;2.47;;
11771;SDS011;12556;55.748;13.194;2023-05-14T12:38:27;4.72;;;2.80;;
11771;SDS011;12556;55.748;13.194;2023-05-14T12:40:53;4.38;;;2.85;;
11771;SDS011;12556;55.748;13.194;2023-05-14T12:43:20;4.60;;;3.35;;
11771;SDS011;12556;55.748;13.194;2023-05-14T12:45:48;3.08;;;2.78;;
11771;SDS011;12556;55.748;13.194;2023-05-14T12:48:15;3.05;;;2.78;;
11771;SDS011;12556;55.748;13.194;2023-05-14T12:50:42;6.20;;;2.70;;
11771;SDS011;12556;55.748;13.194;2023-05-14T12:53:09;5.82;;;2.53;;
11771;SDS011;12556;55.748;13.194;2023-05-14T12:55:41;3.65;;;2.83;;
11771;SDS011;12556;55.748;13.194;2023-05-14T12:58:08;2.70;;;2.40;;
11771;SDS011;12556;55.748;13.194;2023-05-14T13:00:36;7.13;;;2.63;;
11771;SDS011;12556;55.748;13.194;2023-05-14T13:03:02;2.90;;;2.70;;
11771;SDS011;12556;55.748;13.194;2023-05-14T13:05:30;2.78;;;2.58;;
11771;SDS011;12556;55.748;13.194;2023-05-14T13:08:00;3.33;;;2.38;;
11771;SDS011;12556;55.748;13.194;2023-05-14T13:10:30;2.67;;;2.35;;
11771;SDS011;12556;55.748;13.194;2023-05-14T13:12:58;4.47;;;2.85;;
11771;SDS011;12556;55.748;13.194;2023-05-14T13:15:26;4.60;;;2.35;;
11771;SDS011;12556;55.748;13.194;2023-05-14T13:17:54;2.80;;;2.58;;
11771;SDS011;12556;55.748;13.194;2023-05-14T13:20:21;2.65;;;2.40;;
11771;SDS011;12556;55.748;13.194;2023-05-14T13:22:49;4.82;;;2.35;;
11771;SDS011;12556;55.748;13.194;2023-05-14T13:25:16;4.15;;;2.63;;
11771;SDS011;12556;55.748;13.194;2023-05-14T13:27:43;6.05;;;2.55;;
11771;SDS011;12556;55.748;13.194;2023-05-14T13:30:12;3.67;;;2.58;;
11771;SDS011;12556;55.748;13.194;2023-05-14T13:32:39;5.97;;;2.72;;
11771;SDS011;12556;55.748;13.194;2023-05-14T13:35:07;3.13;;;2.28;;
11771;SDS011;12556;55.748;13.194;2023-05-14T13:37:34;3.92;;;2.65;;
11771;SDS011;12556;55.748;13.194;2023-05-14T13:40:01;2.53;;;2.33;;
11771;SDS011;12556;55.748;13.194;2023-05-14T13:42:31;2.72;;;2.53;;
11771;SDS011;12556;55.748;13.194;2023-05-14T13:44:58;4.30;;;2.22;;
11771;SDS011;12556;55.748;13.194;2023-05-14T13:47:27;3.15;;;2.00;;
11771;SDS011;12556;55.748;13.194;2023-05-14T13:49:54;4.03;;;2.10;;
11771;SDS011;12556;55.748;13.194;2023-05-14T13:52:21;2.42;;;2.30;;
11771;SDS011;12556;55.748;13.194;2023-05-14T13:54:54;3.05;;;2.35;;
11771;SDS011;12556;55.748;13.194;2023-05-14T13:57:21;3.30;;;2.25;;
11771;SDS011;12556;55.748;13.194;2023-05-14T13:59:48;4.75;;;2.30;;
11771;SDS011;12556;55.748;13.194;2023-05-14T14:02:15;3.15;;;2.50;;
11771;SDS011;12556;55.748;13.194;2023-05-14T14:04:44;3.20;;;2.22;;
11771;SDS011;12556;55.748;13.194;2023-05-14T14:07:12;2.78;;;2.20;;
11771;SDS011;12556;55.748;13.194;2023-05-14T14:09:41;3.28;;;2.97;;
11771;SDS011;12556;55.748;13.194;2023-05-14T14:12:09;2.40;;;2.20;;
11771;SDS011;12556;55.748;13.194;2023-05-14T14:14:36;3.65;;;3.08;;
11771;SDS011;12556;55.748;13.194;2023-05-14T14:17:03;4.43;;;3.10;;
11771;SDS011;12556;55.748;13.194;2023-05-14T14:19:39;3.28;;;2.97;;
11771;SDS011;12556;55.748;13.194;2023-05-14T14:22:08;3.20;;;2.70;;
11771;SDS011;12556;55.748;13.194;2023-05-14T14:24:36;3.05;;;2.75;;
11771;SDS011;12556;55.748;13.194;2023-05-14T14:27:03;6.63;;;2.72;;
11771;SDS011;12556;55.748;13.194;2023-05-14T14:29:30;3.85;;;3.13;;
11771;SDS011;12556;55.748;13.194;2023-05-14T14:31:58;2.40;;;2.20;;
11771;SDS011;12556;55.748;13.194;2023-05-14T14:34:25;2.50;;;2.30;;
11771;SDS011;12556;55.748;13.194;2023-05-14T14:36:52;7.95;;;3.20;;
11771;SDS011;12556;55.748;13.194;2023-05-14T14:39:20;4.75;;;2.35;;
11771;SDS011;12556;55.748;13.194;2023-05-14T14:41:49;3.97;;;2.58;;
11771;SDS011;12556;55.748;13.194;2023-05-14T14:44:16;3.65;;;2.72;;
11771;SDS011;12556;55.748;13.194;2023-05-14T14:46:43;3.05;;;2.60;;
11771;SDS011;12556;55.748;13.194;2023-05-14T14:49:10;3.38;;;2.47;;
11771;SDS011;12556;55.748;13.194;2023-05-14T14:51:37;4.88;;;2.63;;
11771;SDS011;12556;55.748;13.194;2023-05-14T14:54:04;4.05;;;2.35;;
11771;SDS011;12556;55.748;13.194;2023-05-14T14:56:33;2.22;;;2.08;;